Terminal Aerodrome Forecast
Issued by NWS

Home | Current Version | Previous Version | Text Only | Print | Product List | Glossary On
Versions: 1 2 3 4 5 6 7 8 9 10 11 12 13 14
718
FTUS46 KLOX 041732
TAFVNY
TAF
KVNY 041732Z 0418/0518 00000KT 3SM BR OVC010
     FM042100 14008KT P6SM BKN020
     FM050400 VRB03KT P6SM OVC015
     FM051500 12006KT P6SM -DZ OVC020=

USA.gov is the U.S. government's official web portal to all federal, state and local government web resources and services.